sensor_id;sensor_type;location;lat;lon;timestamp;P1;durP1;ratioP1;P2;durP2;ratioP2
77423;SDS011;66494;47.172;14.678;2024-01-30T00:01:40;3.88;;;1.60;;
77423;SDS011;66494;47.172;14.678;2024-01-30T00:02:40;2.78;;;1.35;;
77423;SDS011;66494;47.172;14.678;2024-01-30T00:04:40;0.70;;;0.40;;
77423;SDS011;66494;47.172;14.678;2024-01-30T00:06:41;0.88;;;0.45;;
77423;SDS011;66494;47.172;14.678;2024-01-30T00:08:41;1.92;;;0.82;;
77423;SDS011;66494;47.172;14.678;2024-01-30T00:10:41;2.97;;;1.23;;
77423;SDS011;66494;47.172;14.678;2024-01-30T00:12:42;5.00;;;0.98;;
77423;SDS011;66494;47.172;14.678;2024-01-30T00:13:42;3.78;;;1.17;;
77423;SDS011;66494;47.172;14.678;2024-01-30T00:15:45;6.43;;;1.23;;
77423;SDS011;66494;47.172;14.678;2024-01-30T00:16:46;3.33;;;0.98;;
77423;SDS011;66494;47.172;14.678;2024-01-30T00:17:46;1.15;;;0.73;;
77423;SDS011;66494;47.172;14.678;2024-01-30T00:19:46;2.47;;;0.95;;
77423;SDS011;66494;47.172;14.678;2024-01-30T00:21:47;2.50;;;1.20;;
77423;SDS011;66494;47.172;14.678;2024-01-30T00:23:47;4.78;;;1.13;;
77423;SDS011;66494;47.172;14.678;2024-01-30T00:25:48;3.67;;;1.10;;
77423;SDS011;66494;47.172;14.678;2024-01-30T00:27:48;2.92;;;1.27;;
77423;SDS011;66494;47.172;14.678;2024-01-30T00:29:48;1.95;;;0.43;;
77423;SDS011;66494;47.172;14.678;2024-01-30T00:31:49;2.92;;;1.02;;
77423;SDS011;66494;47.172;14.678;2024-01-30T00:33:49;1.27;;;0.63;;
77423;SDS011;66494;47.172;14.678;2024-01-30T00:35:49;0.82;;;0.40;;
77423;SDS011;66494;47.172;14.678;2024-01-30T00:37:50;2.33;;;1.27;;
77423;SDS011;66494;47.172;14.678;2024-01-30T00:39:50;1.02;;;0.65;;
77423;SDS011;66494;47.172;14.678;2024-01-30T00:41:50;2.70;;;0.50;;
77423;SDS011;66494;47.172;14.678;2024-01-30T00:43:51;1.00;;;0.30;;
77423;SDS011;66494;47.172;14.678;2024-01-30T00:45:51;1.00;;;0.60;;
77423;SDS011;66494;47.172;14.678;2024-01-30T00:46:54;2.08;;;0.65;;
77423;SDS011;66494;47.172;14.678;2024-01-30T00:47:54;1.98;;;0.65;;
77423;SDS011;66494;47.172;14.678;2024-01-30T00:49:55;3.53;;;0.95;;
77423;SDS011;66494;47.172;14.678;2024-01-30T00:51:55;4.70;;;1.05;;
77423;SDS011;66494;47.172;14.678;2024-01-30T00:53:55;0.13;;;0.10;;
77423;SDS011;66494;47.172;14.678;2024-01-30T00:55:56;4.57;;;1.35;;
77423;SDS011;66494;47.172;14.678;2024-01-30T00:56:56;2.70;;;0.90;;
77423;SDS011;66494;47.172;14.678;2024-01-30T00:58:57;2.23;;;0.87;;
77423;SDS011;66494;47.172;14.678;2024-01-30T01:00:57;2.13;;;0.35;;
77423;SDS011;66494;47.172;14.678;2024-01-30T01:02:58;2.50;;;0.70;;
77423;SDS011;66494;47.172;14.678;2024-01-30T01:04:58;1.50;;;1.00;;
77423;SDS011;66494;47.172;14.678;2024-01-30T01:06:59;2.47;;;0.73;;
77423;SDS011;66494;47.172;14.678;2024-01-30T01:08:59;1.27;;;0.95;;
77423;SDS011;66494;47.172;14.678;2024-01-30T01:10:59;0.35;;;0.10;;
77423;SDS011;66494;47.172;14.678;2024-01-30T01:13:00;1.58;;;0.80;;
77423;SDS011;66494;47.172;14.678;2024-01-30T01:15:00;1.17;;;0.77;;
77423;SDS011;66494;47.172;14.678;2024-01-30T01:17:00;2.72;;;0.95;;
77423;SDS011;66494;47.172;14.678;2024-01-30T01:19:01;2.08;;;0.68;;
77423;SDS011;66494;47.172;14.678;2024-01-30T01:21:01;1.05;;;0.60;;
77423;SDS011;66494;47.172;14.678;2024-01-30T01:23:03;2.35;;;1.00;;
77423;SDS011;66494;47.172;14.678;2024-01-30T01:25:04;4.45;;;1.13;;
77423;SDS011;66494;47.172;14.678;2024-01-30T01:26:07;1.38;;;0.77;;
77423;SDS011;66494;47.172;14.678;2024-01-30T01:27:09;2.97;;;0.95;;
77423;SDS011;66494;47.172;14.678;2024-01-30T01:28:10;1.42;;;0.70;;
77423;SDS011;66494;47.172;14.678;2024-01-30T01:29:10;1.92;;;0.68;;
77423;SDS011;66494;47.172;14.678;2024-01-30T01:30:12;5.20;;;0.65;;
77423;SDS011;66494;47.172;14.678;2024-01-30T01:31:14;1.65;;;0.63;;
77423;SDS011;66494;47.172;14.678;2024-01-30T01:32:14;2.95;;;0.85;;
77423;SDS011;66494;47.172;14.678;2024-01-30T01:34:15;1.48;;;0.35;;
77423;SDS011;66494;47.172;14.678;2024-01-30T01:36:15;2.17;;;0.45;;
77423;SDS011;66494;47.172;14.678;2024-01-30T01:38:16;1.60;;;0.50;;
77423;SDS011;66494;47.172;14.678;2024-01-30T01:40:16;1.13;;;0.55;;
77423;SDS011;66494;47.172;14.678;2024-01-30T01:41:16;3.90;;;0.90;;
77423;SDS011;66494;47.172;14.678;2024-01-30T01:43:17;2.00;;;0.55;;
77423;SDS011;66494;47.172;14.678;2024-01-30T01:44:17;1.20;;;0.55;;
77423;SDS011;66494;47.172;14.678;2024-01-30T01:46:18;1.60;;;0.40;;
77423;SDS011;66494;47.172;14.678;2024-01-30T01:48:18;1.05;;;0.40;;
77423;SDS011;66494;47.172;14.678;2024-01-30T01:50:20;1.63;;;0.70;;
77423;SDS011;66494;47.172;14.678;2024-01-30T01:51:21;1.02;;;0.88;;
77423;SDS011;66494;47.172;14.678;2024-01-30T01:52:21;4.68;;;0.68;;
77423;SDS011;66494;47.172;14.678;2024-01-30T01:53:22;0.63;;;0.45;;
77423;SDS011;66494;47.172;14.678;2024-01-30T01:55:22;2.25;;;0.75;;
77423;SDS011;66494;47.172;14.678;2024-01-30T01:56:24;2.33;;;1.00;;
77423;SDS011;66494;47.172;14.678;2024-01-30T01:57:24;1.85;;;0.63;;
77423;SDS011;66494;47.172;14.678;2024-01-30T01:59:24;1.55;;;0.50;;
77423;SDS011;66494;47.172;14.678;2024-01-30T02:01:25;2.03;;;1.00;;
77423;SDS011;66494;47.172;14.678;2024-01-30T02:02:28;3.45;;;0.75;;
77423;SDS011;66494;47.172;14.678;2024-01-30T02:03:30;2.20;;;1.00;;
77423;SDS011;66494;47.172;14.678;2024-01-30T02:04:30;1.65;;;0.68;;
77423;SDS011;66494;47.172;14.678;2024-01-30T02:06:31;2.50;;;0.90;;
77423;SDS011;66494;47.172;14.678;2024-01-30T02:08:32;5.03;;;1.30;;
77423;SDS011;66494;47.172;14.678;2024-01-30T02:09:33;4.88;;;1.20;;
77423;SDS011;66494;47.172;14.678;2024-01-30T02:10:33;4.15;;;1.95;;
77423;SDS011;66494;47.172;14.678;2024-01-30T02:12:34;3.93;;;1.67;;
77423;SDS011;66494;47.172;14.678;2024-01-30T02:14:43;1.90;;;1.10;;
77423;SDS011;66494;47.172;14.678;2024-01-30T02:15:44;1.05;;;0.70;;
77423;SDS011;66494;47.172;14.678;2024-01-30T02:16:48;1.33;;;0.77;;
77423;SDS011;66494;47.172;14.678;2024-01-30T02:17:48;2.47;;;1.02;;
77423;SDS011;66494;47.172;14.678;2024-01-30T02:19:49;1.98;;;1.05;;
77423;SDS011;66494;47.172;14.678;2024-01-30T02:21:49;1.50;;;0.90;;
77423;SDS011;66494;47.172;14.678;2024-01-30T02:23:50;1.80;;;0.82;;
77423;SDS011;66494;47.172;14.678;2024-01-30T02:25:50;1.30;;;0.77;;
77423;SDS011;66494;47.172;14.678;2024-01-30T02:26:53;2.80;;;1.05;;
77423;SDS011;66494;47.172;14.678;2024-01-30T02:27:53;1.20;;;0.63;;
77423;SDS011;66494;47.172;14.678;2024-01-30T02:29:53;2.13;;;0.98;;
77423;SDS011;66494;47.172;14.678;2024-01-30T02:31:53;2.40;;;0.90;;
77423;SDS011;66494;47.172;14.678;2024-01-30T02:33:54;2.00;;;0.88;;
77423;SDS011;66494;47.172;14.678;2024-01-30T02:35:54;1.63;;;0.85;;
77423;SDS011;66494;47.172;14.678;2024-01-30T02:37:55;2.22;;;0.70;;
77423;SDS011;66494;47.172;14.678;2024-01-30T02:39:55;3.08;;;0.88;;
77423;SDS011;66494;47.172;14.678;2024-01-30T02:41:56;5.55;;;1.25;;
77423;SDS011;66494;47.172;14.678;2024-01-30T02:43:57;1.43;;;0.60;;
77423;SDS011;66494;47.172;14.678;2024-01-30T02:45:57;2.95;;;0.70;;
77423;SDS011;66494;47.172;14.678;2024-01-30T02:46:59;2.25;;;1.42;;
77423;SDS011;66494;47.172;14.678;2024-01-30T02:49:00;2.25;;;1.15;;
77423;SDS011;66494;47.172;14.678;2024-01-30T02:51:00;1.73;;;1.00;;
77423;SDS011;66494;47.172;14.678;2024-01-30T02:53:00;2.83;;;1.48;;
77423;SDS011;66494;47.172;14.678;2024-01-30T02:55:01;2.97;;;1.13;;
77423;SDS011;66494;47.172;14.678;2024-01-30T02:57:02;2.40;;;1.10;;
77423;SDS011;66494;47.172;14.678;2024-01-30T02:59:02;2.78;;;1.33;;
77423;SDS011;66494;47.172;14.678;2024-01-30T03:01:04;2.60;;;1.33;;
77423;SDS011;66494;47.172;14.678;2024-01-30T03:03:04;2.13;;;1.13;;
77423;SDS011;66494;47.172;14.678;2024-01-30T03:05:05;2.67;;;1.45;;
77423;SDS011;66494;47.172;14.678;2024-01-30T03:07:05;2.50;;;0.93;;
77423;SDS011;66494;47.172;14.678;2024-01-30T03:09:05;2.53;;;1.65;;
77423;SDS011;66494;47.172;14.678;2024-01-30T03:11:06;5.78;;;1.38;;
77423;SDS011;66494;47.172;14.678;2024-01-30T03:13:06;2.28;;;1.35;;
77423;SDS011;66494;47.172;14.678;2024-01-30T03:15:08;2.67;;;1.63;;
77423;SDS011;66494;47.172;14.678;2024-01-30T03:16:09;2.85;;;1.35;;
77423;SDS011;66494;47.172;14.678;2024-01-30T03:18:10;3.15;;;1.63;;
77423;SDS011;66494;47.172;14.678;2024-01-30T03:20:10;4.47;;;1.48;;
77423;SDS011;66494;47.172;14.678;2024-01-30T03:22:11;4.00;;;1.03;;
77423;SDS011;66494;47.172;14.678;2024-01-30T03:24:11;2.60;;;1.10;;
77423;SDS011;66494;47.172;14.678;2024-01-30T03:26:11;4.55;;;1.27;;
77423;SDS011;66494;47.172;14.678;2024-01-30T03:28:12;2.20;;;0.93;;
77423;SDS011;66494;47.172;14.678;2024-01-30T03:30:13;2.47;;;1.00;;
77423;SDS011;66494;47.172;14.678;2024-01-30T03:32:13;2.95;;;1.20;;
77423;SDS011;66494;47.172;14.678;2024-01-30T03:34:13;3.13;;;1.45;;
77423;SDS011;66494;47.172;14.678;2024-01-30T03:36:15;5.15;;;1.50;;
77423;SDS011;66494;47.172;14.678;2024-01-30T03:37:15;2.55;;;1.48;;
77423;SDS011;66494;47.172;14.678;2024-01-30T03:39:16;4.38;;;2.05;;
77423;SDS011;66494;47.172;14.678;2024-01-30T03:41:16;1.47;;;1.10;;
77423;SDS011;66494;47.172;14.678;2024-01-30T03:43:17;5.10;;;1.63;;
77423;SDS011;66494;47.172;14.678;2024-01-30T03:45:17;2.40;;;1.52;;
77423;SDS011;66494;47.172;14.678;2024-01-30T03:46:19;4.43;;;2.03;;
77423;SDS011;66494;47.172;14.678;2024-01-30T03:48:20;3.22;;;1.30;;
77423;SDS011;66494;47.172;14.678;2024-01-30T03:50:21;4.33;;;1.50;;
77423;SDS011;66494;47.172;14.678;2024-01-30T03:52:21;2.35;;;1.52;;
77423;SDS011;66494;47.172;14.678;2024-01-30T03:54:21;3.25;;;1.50;;
77423;SDS011;66494;47.172;14.678;2024-01-30T03:56:22;4.22;;;1.52;;
77423;SDS011;66494;47.172;14.678;2024-01-30T03:58:22;2.33;;;1.35;;
77423;SDS011;66494;47.172;14.678;2024-01-30T04:00:24;2.83;;;1.02;;
77423;SDS011;66494;47.172;14.678;2024-01-30T04:02:24;3.70;;;1.40;;
77423;SDS011;66494;47.172;14.678;2024-01-30T04:04:24;2.22;;;1.23;;
77423;SDS011;66494;47.172;14.678;2024-01-30T04:06:25;2.20;;;1.35;;
77423;SDS011;66494;47.172;14.678;2024-01-30T04:08:26;4.23;;;1.53;;
77423;SDS011;66494;47.172;14.678;2024-01-30T04:10:28;4.57;;;1.85;;
77423;SDS011;66494;47.172;14.678;2024-01-30T04:12:28;1.95;;;1.20;;
77423;SDS011;66494;47.172;14.678;2024-01-30T04:14:29;4.20;;;1.88;;
77423;SDS011;66494;47.172;14.678;2024-01-30T04:16:29;4.75;;;1.63;;
77423;SDS011;66494;47.172;14.678;2024-01-30T04:18:30;4.93;;;1.13;;
77423;SDS011;66494;47.172;14.678;2024-01-30T04:20:30;2.33;;;1.52;;
77423;SDS011;66494;47.172;14.678;2024-01-30T04:22:30;2.65;;;1.00;;
77423;SDS011;66494;47.172;14.678;2024-01-30T04:24:31;3.15;;;1.45;;
77423;SDS011;66494;47.172;14.678;2024-01-30T04:26:31;4.53;;;1.60;;
77423;SDS011;66494;47.172;14.678;2024-01-30T04:28:32;2.88;;;1.52;;
77423;SDS011;66494;47.172;14.678;2024-01-30T04:30:33;5.18;;;1.83;;
77423;SDS011;66494;47.172;14.678;2024-01-30T04:32:33;5.72;;;2.08;;
77423;SDS011;66494;47.172;14.678;2024-01-30T04:34:35;3.83;;;1.70;;
77423;SDS011;66494;47.172;14.678;2024-01-30T04:35:36;3.40;;;1.83;;
77423;SDS011;66494;47.172;14.678;2024-01-30T04:37:36;3.90;;;2.10;;
77423;SDS011;66494;47.172;14.678;2024-01-30T04:39:37;5.25;;;2.08;;
77423;SDS011;66494;47.172;14.678;2024-01-30T04:41:37;5.97;;;1.67;;
77423;SDS011;66494;47.172;14.678;2024-01-30T04:43:37;3.35;;;1.50;;
77423;SDS011;66494;47.172;14.678;2024-01-30T04:45:38;5.50;;;1.85;;
77423;SDS011;66494;47.172;14.678;2024-01-30T04:47:38;7.07;;;2.45;;
77423;SDS011;66494;47.172;14.678;2024-01-30T04:48:41;7.75;;;2.25;;
77423;SDS011;66494;47.172;14.678;2024-01-30T04:50:42;3.47;;;1.58;;
77423;SDS011;66494;47.172;14.678;2024-01-30T04:52:42;5.75;;;1.83;;
77423;SDS011;66494;47.172;14.678;2024-01-30T04:54:42;4.88;;;1.85;;
77423;SDS011;66494;47.172;14.678;2024-01-30T04:56:43;5.00;;;1.75;;
77423;SDS011;66494;47.172;14.678;2024-01-30T04:58:43;3.30;;;1.85;;
77423;SDS011;66494;47.172;14.678;2024-01-30T05:00:43;7.63;;;2.20;;
77423;SDS011;66494;47.172;14.678;2024-01-30T05:02:44;3.90;;;2.20;;
77423;SDS011;66494;47.172;14.678;2024-01-30T05:04:44;5.45;;;2.25;;
77423;SDS011;66494;47.172;14.678;2024-01-30T05:06:45;7.88;;;2.78;;
77423;SDS011;66494;47.172;14.678;2024-01-30T05:08:45;4.72;;;2.58;;
77423;SDS011;66494;47.172;14.678;2024-01-30T05:10:45;6.78;;;2.47;;
77423;SDS011;66494;47.172;14.678;2024-01-30T05:12:46;4.90;;;2.60;;
77423;SDS011;66494;47.172;14.678;2024-01-30T05:14:46;4.30;;;2.53;;
77423;SDS011;66494;47.172;14.678;2024-01-30T05:16:46;7.70;;;2.35;;
77423;SDS011;66494;47.172;14.678;2024-01-30T05:18:47;3.93;;;2.00;;
77423;SDS011;66494;47.172;14.678;2024-01-30T05:20:48;7.63;;;2.60;;
77423;SDS011;66494;47.172;14.678;2024-01-30T05:22:48;3.35;;;1.98;;
77423;SDS011;66494;47.172;14.678;2024-01-30T05:24:48;3.33;;;1.95;;
77423;SDS011;66494;47.172;14.678;2024-01-30T05:26:49;4.30;;;1.90;;
77423;SDS011;66494;47.172;14.678;2024-01-30T05:27:51;3.83;;;2.17;;
77423;SDS011;66494;47.172;14.678;2024-01-30T05:29:51;6.95;;;2.22;;
77423;SDS011;66494;47.172;14.678;2024-01-30T05:31:51;4.88;;;2.17;;
77423;SDS011;66494;47.172;14.678;2024-01-30T05:33:52;4.57;;;1.98;;
77423;SDS011;66494;47.172;14.678;2024-01-30T05:35:53;6.80;;;1.88;;
77423;SDS011;66494;47.172;14.678;2024-01-30T05:36:54;4.75;;;1.95;;
77423;SDS011;66494;47.172;14.678;2024-01-30T05:38:55;3.28;;;1.77;;
77423;SDS011;66494;47.172;14.678;2024-01-30T05:40:56;6.27;;;2.03;;
77423;SDS011;66494;47.172;14.678;2024-01-30T05:41:58;3.38;;;2.00;;
77423;SDS011;66494;47.172;14.678;2024-01-30T05:44:00;6.38;;;2.85;;
77423;SDS011;66494;47.172;14.678;2024-01-30T05:46:01;3.92;;;1.88;;
77423;SDS011;66494;47.172;14.678;2024-01-30T05:48:01;4.18;;;2.38;;
77423;SDS011;66494;47.172;14.678;2024-01-30T05:50:02;4.38;;;2.22;;
77423;SDS011;66494;47.172;14.678;2024-01-30T05:51:03;5.00;;;2.38;;
77423;SDS011;66494;47.172;14.678;2024-01-30T05:53:04;3.90;;;1.93;;
77423;SDS011;66494;47.172;14.678;2024-01-30T05:55:04;4.30;;;2.25;;
77423;SDS011;66494;47.172;14.678;2024-01-30T05:57:05;2.53;;;1.43;;
77423;SDS011;66494;47.172;14.678;2024-01-30T05:59:06;2.90;;;2.15;;
77423;SDS011;66494;47.172;14.678;2024-01-30T06:01:06;3.58;;;2.03;;
77423;SDS011;66494;47.172;14.678;2024-01-30T06:02:07;3.92;;;1.80;;
77423;SDS011;66494;47.172;14.678;2024-01-30T06:04:08;4.40;;;1.77;;
77423;SDS011;66494;47.172;14.678;2024-01-30T06:06:08;3.85;;;2.65;;
77423;SDS011;66494;47.172;14.678;2024-01-30T06:08:08;3.80;;;1.75;;
77423;SDS011;66494;47.172;14.678;2024-01-30T06:10:09;3.63;;;2.15;;
77423;SDS011;66494;47.172;14.678;2024-01-30T06:12:09;4.75;;;1.98;;
77423;SDS011;66494;47.172;14.678;2024-01-30T06:13:11;6.13;;;2.53;;
77423;SDS011;66494;47.172;14.678;2024-01-30T06:15:12;4.88;;;2.17;;
77423;SDS011;66494;47.172;14.678;2024-01-30T06:17:13;5.10;;;2.53;;
77423;SDS011;66494;47.172;14.678;2024-01-30T06:19:13;3.23;;;1.83;;
77423;SDS011;66494;47.172;14.678;2024-01-30T06:21:14;5.80;;;1.98;;
77423;SDS011;66494;47.172;14.678;2024-01-30T06:23:14;8.82;;;2.65;;
77423;SDS011;66494;47.172;14.678;2024-01-30T06:25:14;12.20;;;3.55;;
77423;SDS011;66494;47.172;14.678;2024-01-30T06:26:16;9.98;;;4.00;;
77423;SDS011;66494;47.172;14.678;2024-01-30T06:28:17;13.18;;;3.55;;
77423;SDS011;66494;47.172;14.678;2024-01-30T06:30:18;17.80;;;6.22;;
77423;SDS011;66494;47.172;14.678;2024-01-30T06:32:18;26.42;;;7.60;;
77423;SDS011;66494;47.172;14.678;2024-01-30T06:34:19;28.13;;;9.38;;
77423;SDS011;66494;47.172;14.678;2024-01-30T06:36:19;15.20;;;6.40;;
77423;SDS011;66494;47.172;14.678;2024-01-30T06:38:19;28.83;;;9.60;;
77423;SDS011;66494;47.172;14.678;2024-01-30T06:40:20;49.17;;;15.32;;
77423;SDS011;66494;47.172;14.678;2024-01-30T06:42:21;47.00;;;15.68;;
77423;SDS011;66494;47.172;14.678;2024-01-30T06:44:21;37.90;;;11.77;;
77423;SDS011;66494;47.172;14.678;2024-01-30T06:46:21;30.70;;;8.80;;
77423;SDS011;66494;47.172;14.678;2024-01-30T06:48:22;21.35;;;8.90;;
77423;SDS011;66494;47.172;14.678;2024-01-30T06:50:22;25.77;;;8.02;;
77423;SDS011;66494;47.172;14.678;2024-01-30T06:52:22;23.25;;;8.00;;
77423;SDS011;66494;47.172;14.678;2024-01-30T06:54:23;24.27;;;8.95;;
77423;SDS011;66494;47.172;14.678;2024-01-30T06:56:24;30.35;;;10.98;;
77423;SDS011;66494;47.172;14.678;2024-01-30T06:57:25;30.58;;;11.98;;
77423;SDS011;66494;47.172;14.678;2024-01-30T06:58:28;19.55;;;8.10;;
77423;SDS011;66494;47.172;14.678;2024-01-30T07:00:28;15.82;;;6.70;;
77423;SDS011;66494;47.172;14.678;2024-01-30T07:02:29;17.92;;;6.75;;
77423;SDS011;66494;47.172;14.678;2024-01-30T07:04:29;17.17;;;6.78;;
77423;SDS011;66494;47.172;14.678;2024-01-30T07:05:31;16.15;;;7.00;;
77423;SDS011;66494;47.172;14.678;2024-01-30T07:07:31;18.17;;;6.60;;
77423;SDS011;66494;47.172;14.678;2024-01-30T07:09:32;27.65;;;7.93;;
77423;SDS011;66494;47.172;14.678;2024-01-30T07:11:32;14.85;;;6.13;;
77423;SDS011;66494;47.172;14.678;2024-01-30T07:13:33;5.75;;;2.28;;
77423;SDS011;66494;47.172;14.678;2024-01-30T07:14:34;8.23;;;2.47;;
77423;SDS011;66494;47.172;14.678;2024-01-30T07:16:34;8.88;;;2.90;;
77423;SDS011;66494;47.172;14.678;2024-01-30T07:18:35;8.52;;;3.33;;
77423;SDS011;66494;47.172;14.678;2024-01-30T07:20:35;6.32;;;2.47;;
77423;SDS011;66494;47.172;14.678;2024-01-30T07:22:35;14.68;;;3.40;;
77423;SDS011;66494;47.172;14.678;2024-01-30T07:24:42;8.18;;;3.05;;
77423;SDS011;66494;47.172;14.678;2024-01-30T07:25:44;7.82;;;2.58;;
77423;SDS011;66494;47.172;14.678;2024-01-30T07:27:45;4.88;;;3.03;;
77423;SDS011;66494;47.172;14.678;2024-01-30T07:29:45;8.77;;;3.53;;
77423;SDS011;66494;47.172;14.678;2024-01-30T07:31:46;6.70;;;3.75;;
77423;SDS011;66494;47.172;14.678;2024-01-30T07:33:46;7.18;;;3.33;;
77423;SDS011;66494;47.172;14.678;2024-01-30T07:35:46;8.23;;;3.97;;
77423;SDS011;66494;47.172;14.678;2024-01-30T07:37:47;9.93;;;4.15;;
77423;SDS011;66494;47.172;14.678;2024-01-30T07:39:47;7.20;;;3.10;;
77423;SDS011;66494;47.172;14.678;2024-01-30T07:41:47;10.80;;;3.50;;
77423;SDS011;66494;47.172;14.678;2024-01-30T07:43:48;7.88;;;3.63;;
77423;SDS011;66494;47.172;14.678;2024-01-30T07:45:49;4.40;;;2.58;;
77423;SDS011;66494;47.172;14.678;2024-01-30T07:47:49;4.95;;;2.20;;
77423;SDS011;66494;47.172;14.678;2024-01-30T07:49:53;6.72;;;2.55;;
77423;SDS011;66494;47.172;14.678;2024-01-30T07:51:54;5.57;;;2.13;;
77423;SDS011;66494;47.172;14.678;2024-01-30T07:53:57;7.15;;;2.40;;
77423;SDS011;66494;47.172;14.678;2024-01-30T07:56:35;6.15;;;3.25;;
77423;SDS011;66494;47.172;14.678;2024-01-30T07:58:37;6.75;;;3.35;;
77423;SDS011;66494;47.172;14.678;2024-01-30T08:00:37;5.23;;;3.13;;
77423;SDS011;66494;47.172;14.678;2024-01-30T08:02:37;5.70;;;3.22;;
77423;SDS011;66494;47.172;14.678;2024-01-30T08:04:39;5.47;;;2.53;;
77423;SDS011;66494;47.172;14.678;2024-01-30T08:06:40;7.78;;;3.67;;
77423;SDS011;66494;47.172;14.678;2024-01-30T08:08:40;7.13;;;2.92;;
77423;SDS011;66494;47.172;14.678;2024-01-30T08:10:40;8.15;;;3.13;;
77423;SDS011;66494;47.172;14.678;2024-01-30T08:12:41;6.15;;;3.70;;
77423;SDS011;66494;47.172;14.678;2024-01-30T08:14:41;7.20;;;3.30;;
77423;SDS011;66494;47.172;14.678;2024-01-30T08:16:41;7.88;;;3.42;;
77423;SDS011;66494;47.172;14.678;2024-01-30T08:18:42;5.60;;;3.10;;
77423;SDS011;66494;47.172;14.678;2024-01-30T08:20:42;5.63;;;3.47;;
77423;SDS011;66494;47.172;14.678;2024-01-30T08:22:43;8.60;;;3.13;;
77423;SDS011;66494;47.172;14.678;2024-01-30T08:24:43;6.80;;;2.47;;
77423;SDS011;66494;47.172;14.678;2024-01-30T08:26:43;4.93;;;2.80;;
77423;SDS011;66494;47.172;14.678;2024-01-30T08:28:44;4.50;;;3.00;;
77423;SDS011;66494;47.172;14.678;2024-01-30T08:30:45;6.78;;;2.40;;
77423;SDS011;66494;47.172;14.678;2024-01-30T08:32:46;7.10;;;2.78;;
77423;SDS011;66494;47.172;14.678;2024-01-30T08:34:47;5.37;;;2.70;;
77423;SDS011;66494;47.172;14.678;2024-01-30T08:36:47;5.90;;;2.83;;
77423;SDS011;66494;47.172;14.678;2024-01-30T08:38:48;4.32;;;3.25;;
77423;SDS011;66494;47.172;14.678;2024-01-30T08:40:49;4.75;;;2.20;;
77423;SDS011;66494;47.172;14.678;2024-01-30T08:42:49;4.30;;;2.13;;
77423;SDS011;66494;47.172;14.678;2024-01-30T08:44:49;5.05;;;3.13;;
77423;SDS011;66494;47.172;14.678;2024-01-30T08:45:51;5.05;;;2.42;;
77423;SDS011;66494;47.172;14.678;2024-01-30T08:46:51;4.50;;;2.50;;
77423;SDS011;66494;47.172;14.678;2024-01-30T08:48:52;7.15;;;3.45;;
77423;SDS011;66494;47.172;14.678;2024-01-30T08:50:53;4.67;;;3.00;;
77423;SDS011;66494;47.172;14.678;2024-01-30T08:52:53;7.78;;;2.53;;
77423;SDS011;66494;47.172;14.678;2024-01-30T08:54:54;5.45;;;3.10;;
77423;SDS011;66494;47.172;14.678;2024-01-30T08:56:54;10.85;;;5.82;;
77423;SDS011;66494;47.172;14.678;2024-01-30T08:57:56;8.50;;;4.40;;
77423;SDS011;66494;47.172;14.678;2024-01-30T08:58:56;11.93;;;5.57;;
77423;SDS011;66494;47.172;14.678;2024-01-30T09:00:56;9.82;;;4.10;;
77423;SDS011;66494;47.172;14.678;2024-01-30T09:02:59;6.57;;;2.85;;
77423;SDS011;66494;47.172;14.678;2024-01-30T09:03:59;8.65;;;3.13;;
77423;SDS011;66494;47.172;14.678;2024-01-30T09:05:59;4.38;;;2.20;;
77423;SDS011;66494;47.172;14.678;2024-01-30T09:08:00;6.40;;;2.90;;
77423;SDS011;66494;47.172;14.678;2024-01-30T09:10:01;6.03;;;2.83;;
77423;SDS011;66494;47.172;14.678;2024-01-30T09:11:02;3.70;;;2.40;;
77423;SDS011;66494;47.172;14.678;2024-01-30T09:12:02;4.38;;;2.35;;
77423;SDS011;66494;47.172;14.678;2024-01-30T09:13:06;7.05;;;2.38;;
77423;SDS011;66494;47.172;14.678;2024-01-30T09:15:07;6.75;;;2.20;;
77423;SDS011;66494;47.172;14.678;2024-01-30T09:17:07;4.88;;;2.45;;
77423;SDS011;66494;47.172;14.678;2024-01-30T09:19:08;6.65;;;2.83;;
77423;SDS011;66494;47.172;14.678;2024-01-30T09:21:09;5.88;;;3.50;;
77423;SDS011;66494;47.172;14.678;2024-01-30T09:23:10;4.30;;;2.20;;
77423;SDS011;66494;47.172;14.678;2024-01-30T09:25:10;5.63;;;1.97;;
77423;SDS011;66494;47.172;14.678;2024-01-30T09:27:12;7.05;;;3.53;;
77423;SDS011;66494;47.172;14.678;2024-01-30T09:28:12;5.32;;;3.22;;
77423;SDS011;66494;47.172;14.678;2024-01-30T09:30:13;4.70;;;2.35;;
77423;SDS011;66494;47.172;14.678;2024-01-30T09:32:13;3.17;;;2.40;;
77423;SDS011;66494;47.172;14.678;2024-01-30T09:33:13;6.72;;;2.83;;
77423;SDS011;66494;47.172;14.678;2024-01-30T09:34:14;4.35;;;2.30;;
77423;SDS011;66494;47.172;14.678;2024-01-30T09:36:14;6.07;;;2.95;;
77423;SDS011;66494;47.172;14.678;2024-01-30T09:37:19;5.70;;;2.83;;
77423;SDS011;66494;47.172;14.678;2024-01-30T09:38:20;7.55;;;2.75;;
77423;SDS011;66494;47.172;14.678;2024-01-30T09:39:21;9.70;;;2.95;;
77423;SDS011;66494;47.172;14.678;2024-01-30T09:40:21;4.43;;;1.88;;
77423;SDS011;66494;47.172;14.678;2024-01-30T09:43:24;4.25;;;2.03;;
77423;SDS011;66494;47.172;14.678;2024-01-30T09:44:26;9.45;;;2.38;;
77423;SDS011;66494;47.172;14.678;2024-01-30T09:45:28;5.28;;;1.83;;
77423;SDS011;66494;47.172;14.678;2024-01-30T09:46:29;6.38;;;2.20;;
77423;SDS011;66494;47.172;14.678;2024-01-30T09:47:40;6.25;;;2.58;;
77423;SDS011;66494;47.172;14.678;2024-01-30T09:48:42;3.63;;;1.80;;
77423;SDS011;66494;47.172;14.678;2024-01-30T09:49:43;13.25;;;2.95;;
77423;SDS011;66494;47.172;14.678;2024-01-30T09:51:44;4.53;;;1.85;;
77423;SDS011;66494;47.172;14.678;2024-01-30T09:52:45;3.58;;;1.70;;
77423;SDS011;66494;47.172;14.678;2024-01-30T09:54:45;6.50;;;2.58;;
77423;SDS011;66494;47.172;14.678;2024-01-30T09:55:46;4.95;;;1.90;;
77423;SDS011;66494;47.172;14.678;2024-01-30T09:57:47;10.27;;;1.90;;
77423;SDS011;66494;47.172;14.678;2024-01-30T09:58:47;7.55;;;2.65;;
77423;SDS011;66494;47.172;14.678;2024-01-30T10:00:48;7.13;;;1.93;;
77423;SDS011;66494;47.172;14.678;2024-01-30T10:01:49;12.98;;;2.90;;
77423;SDS011;66494;47.172;14.678;2024-01-30T10:03:50;4.47;;;1.70;;
77423;SDS011;66494;47.172;14.678;2024-01-30T10:04:52;7.28;;;3.33;;
77423;SDS011;66494;47.172;14.678;2024-01-30T10:06:52;8.43;;;3.88;;
77423;SDS011;66494;47.172;14.678;2024-01-30T10:07:53;7.35;;;3.13;;
77423;SDS011;66494;47.172;14.678;2024-01-30T10:08:54;5.03;;;2.00;;
77423;SDS011;66494;47.172;14.678;2024-01-30T10:10:58;13.20;;;3.08;;
77423;SDS011;66494;47.172;14.678;2024-01-30T10:12:58;7.45;;;1.88;;
77423;SDS011;66494;47.172;14.678;2024-01-30T10:14:58;5.72;;;2.40;;
77423;SDS011;66494;47.172;14.678;2024-01-30T10:15:59;12.95;;;2.83;;
77423;SDS011;66494;47.172;14.678;2024-01-30T10:17:59;16.67;;;2.63;;
77423;SDS011;66494;47.172;14.678;2024-01-30T10:18:59;34.63;;;5.00;;
77423;SDS011;66494;47.172;14.678;2024-01-30T10:20:00;14.52;;;3.45;;
77423;SDS011;66494;47.172;14.678;2024-01-30T10:21:00;3.95;;;2.30;;
77423;SDS011;66494;47.172;14.678;2024-01-30T10:22:00;8.25;;;2.50;;
77423;SDS011;66494;47.172;14.678;2024-01-30T10:23:01;11.75;;;2.72;;
77423;SDS011;66494;47.172;14.678;2024-01-30T10:25:01;17.27;;;2.83;;
77423;SDS011;66494;47.172;14.678;2024-01-30T10:27:02;10.73;;;3.07;;
77423;SDS011;66494;47.172;14.678;2024-01-30T10:29:03;10.55;;;2.35;;
77423;SDS011;66494;47.172;14.678;2024-01-30T10:31:04;17.27;;;2.85;;
77423;SDS011;66494;47.172;14.678;2024-01-30T10:32:04;11.70;;;2.63;;
77423;SDS011;66494;47.172;14.678;2024-01-30T10:33:06;16.08;;;3.20;;